Time;durP1;ratioP1;P1;durP2;ratioP2;P2;SDS_P1;SDS_P2;PMS_P1;PMS_P2;Temp;Humidity;BMP_temperature;BMP_pressure;BME280_temperature;BME280_humidity;BME280_pressure;Samples;Min_cycle;Max_cycle;Signal;HPM_P1;HPM_P2
2023/12/21 00:01:36;;;;;;;2.85;1.80;;;5.00;99.90;;;;;;5021648;28;20050;-61
2023/12/21 00:04:03;;;;;;;2.35;1.88;;;5.00;99.90;;;;;;5020738;28;20037;-64
2023/12/21 00:06:28;;;;;;;2.88;1.70;;;5.00;99.90;;;;;;5019786;28;20039;-64
2023/12/21 00:08:54;;;;;;;9.65;2.17;;;5.00;99.90;;;;;;5021460;28;20022;-64
2023/12/21 00:11:20;;;;;;;2.47;1.60;;;5.00;99.90;;;;;;5016885;28;20034;-64
2023/12/21 00:13:45;;;;;;;4.00;1.70;;;5.00;99.90;;;;;;5018565;28;20702;-63
2023/12/21 00:16:12;;;;;;;3.35;1.80;;;5.00;99.90;;;;;;5018339;28;20026;-63
2023/12/21 00:18:38;;;;;;;3.80;1.75;;;5.00;99.90;;;;;;5018412;28;20391;-64
2023/12/21 00:21:04;;;;;;;3.95;1.65;;;5.00;99.90;;;;;;5015005;28;20049;-64
2023/12/21 00:23:29;;;;;;;1.52;1.42;;;5.00;99.90;;;;;;5020173;28;20037;-63
2023/12/21 00:25:55;;;;;;;4.25;1.40;;;5.00;99.90;;;;;;5017360;28;20576;-64
2023/12/21 00:28:20;;;;;;;2.20;1.45;;;5.00;99.90;;;;;;5018072;28;20017;-63
2023/12/21 00:30:46;;;;;;;3.53;1.20;;;5.00;99.90;;;;;;5019267;28;20030;-63
2023/12/21 00:33:12;;;;;;;2.00;1.38;;;5.00;99.90;;;;;;5015413;28;20038;-63
2023/12/21 00:35:38;;;;;;;1.23;1.13;;;5.00;99.90;;;;;;5018743;28;20140;-61
2023/12/21 00:38:03;;;;;;;1.40;1.23;;;5.00;99.90;;;;;;5018725;28;20034;-61
2023/12/21 00:40:29;;;;;;;4.82;0.88;;;5.10;99.90;;;;;;5019690;28;20048;-61
2023/12/21 00:42:55;;;;;;;1.80;1.27;;;5.00;99.90;;;;;;5017675;28;20029;-61
2023/12/21 00:45:21;;;;;;;1.75;1.20;;;5.00;99.90;;;;;;5020616;28;20038;-62
2023/12/21 00:47:48;;;;;;;1.85;1.00;;;5.00;99.90;;;;;;5017686;28;20029;-60
2023/12/21 00:50:14;;;;;;;1.98;0.80;;;5.00;99.90;;;;;;5018548;28;20072;-63
2023/12/21 00:52:40;;;;;;;0.82;0.77;;;5.00;99.90;;;;;;5018838;28;20046;-63
2023/12/21 00:55:06;;;;;;;1.67;0.80;;;5.00;99.90;;;;;;5016475;28;20038;-63
2023/12/21 00:57:32;;;;;;;1.00;0.70;;;5.00;99.90;;;;;;5019946;28;20029;-63
2023/12/21 00:59:57;;;;;;;0.73;0.70;;;5.00;99.90;;;;;;5015952;28;20604;-63
2023/12/21 01:02:23;;;;;;;0.60;0.60;;;5.00;99.90;;;;;;5018959;28;20068;-63
2023/12/21 01:04:48;;;;;;;4.00;0.65;;;5.00;99.90;;;;;;5019418;28;20041;-62
2023/12/21 01:07:14;;;;;;;0.50;0.50;;;5.00;99.90;;;;;;5017066;28;20021;-64
2023/12/21 01:09:39;;;;;;;1.33;0.70;;;5.00;99.90;;;;;;5018435;28;20041;-63
2023/12/21 01:12:06;;;;;;;0.60;0.60;;;5.00;99.90;;;;;;5015193;28;20026;-63
2023/12/21 01:14:32;;;;;;;0.60;0.60;;;5.00;99.90;;;;;;5017493;28;20706;-63
2023/12/21 01:16:58;;;;;;;0.65;0.50;;;5.00;99.90;;;;;;5021520;28;20063;-63
2023/12/21 01:19:23;;;;;;;0.73;0.43;;;5.00;99.90;;;;;;5017554;28;20122;-64
2023/12/21 01:21:49;;;;;;;0.50;0.50;;;5.00;99.90;;;;;;5017893;28;20429;-63
2023/12/21 01:24:14;;;;;;;0.75;0.70;;;5.10;99.90;;;;;;5020327;28;20021;-63
2023/12/21 01:26:42;;;;;;;1.05;0.60;;;5.10;99.90;;;;;;5014052;28;20041;-63
2023/12/21 01:29:07;;;;;;;0.85;0.60;;;5.10;99.90;;;;;;5019045;28;20079;-61
2023/12/21 01:31:33;;;;;;;2.25;1.40;;;5.00;99.90;;;;;;5017363;28;20491;-61
2023/12/21 01:33:59;;;;;;;0.98;0.77;;;5.00;99.90;;;;;;5020389;28;20035;-61
2023/12/21 01:36:26;;;;;;;0.50;0.50;;;5.10;99.90;;;;;;5019431;28;20075;-60
2023/12/21 01:38:52;;;;;;;0.70;0.70;;;5.10;99.90;;;;;;5014828;28;20030;-61
2023/12/21 01:41:18;;;;;;;1.50;0.60;;;5.10;99.90;;;;;;5016090;28;20034;-60
2023/12/21 01:43:43;;;;;;;0.60;0.60;;;5.10;99.90;;;;;;5018195;28;20517;-61
2023/12/21 01:46:09;;;;;;;0.68;0.68;;;5.20;99.90;;;;;;5016363;28;20454;-61
2023/12/21 01:48:36;;;;;;;1.80;0.85;;;5.20;99.90;;;;;;5016706;28;20030;-61
2023/12/21 01:51:04;;;;;;;0.95;0.70;;;5.20;99.90;;;;;;5016226;28;20573;-62
2023/12/21 01:53:31;;;;;;;0.95;0.90;;;5.20;99.90;;;;;;5020173;28;20588;-60
2023/12/21 01:55:58;;;;;;;0.90;0.90;;;5.20;99.90;;;;;;5018585;28;20038;-61
2023/12/21 01:58:24;;;;;;;1.30;0.85;;;5.20;99.90;;;;;;5019462;28;20490;-62
2023/12/21 02:00:50;;;;;;;1.85;1.00;;;5.30;99.90;;;;;;5016054;28;20026;-62
2023/12/21 02:03:16;;;;;;;1.67;0.70;;;5.30;99.90;;;;;;5018341;28;20395;-62
2023/12/21 02:05:42;;;;;;;0.77;0.77;;;5.30;99.90;;;;;;5016381;28;21587;-60
2023/12/21 02:08:08;;;;;;;1.10;1.00;;;5.30;99.90;;;;;;5016593;28;20716;-61
2023/12/21 02:10:35;;;;;;;1.48;0.75;;;5.30;99.90;;;;;;5018099;28;20038;-62
2023/12/21 02:13:00;;;;;;;1.00;0.80;;;5.30;99.90;;;;;;5017484;28;20030;-61
2023/12/21 02:15:26;;;;;;;0.80;0.80;;;5.30;99.90;;;;;;5016220;28;20025;-61
2023/12/21 02:17:53;;;;;;;0.95;0.85;;;5.40;99.90;;;;;;5018501;28;20068;-62
2023/12/21 02:20:19;;;;;;;0.68;0.68;;;5.40;99.90;;;;;;5018692;28;20034;-61
2023/12/21 02:22:48;;;;;;;1.08;0.80;;;5.40;99.90;;;;;;5019269;28;20034;-62
2023/12/21 02:25:14;;;;;;;1.90;0.60;;;5.40;99.90;;;;;;5019397;28;20412;-61
2023/12/21 02:27:39;;;;;;;0.93;0.70;;;5.40;99.90;;;;;;5017798;28;20060;-61
2023/12/21 02:30:06;;;;;;;0.70;0.60;;;5.40;99.90;;;;;;5018176;28;20054;-62
2023/12/21 02:32:32;;;;;;;0.80;0.60;;;5.40;99.90;;;;;;5016583;28;20402;-61
2023/12/21 02:34:57;;;;;;;1.80;1.05;;;5.40;99.90;;;;;;5016848;28;20056;-61
2023/12/21 02:37:23;;;;;;;0.70;0.60;;;5.40;99.90;;;;;;5014436;28;20042;-61
2023/12/21 02:39:49;;;;;;;0.85;0.57;;;5.40;99.90;;;;;;5015300;28;20089;-62
2023/12/21 02:42:14;;;;;;;0.50;0.50;;;5.40;99.90;;;;;;5016993;28;20061;-61
2023/12/21 02:44:40;;;;;;;0.63;0.63;;;5.40;99.90;;;;;;5014413;28;20057;-62
2023/12/21 02:47:05;;;;;;;0.70;0.70;;;5.40;99.90;;;;;;5014753;28;20041;-62
2023/12/21 02:49:31;;;;;;;0.63;0.50;;;5.40;99.90;;;;;;5019658;28;20112;-60
2023/12/21 02:51:56;;;;;;;0.88;0.60;;;5.40;99.90;;;;;;5019824;28;20504;-61
2023/12/21 02:54:22;;;;;;;1.85;0.47;;;5.40;99.90;;;;;;5017141;28;20034;-61
2023/12/21 02:56:48;;;;;;;0.70;0.50;;;5.40;99.90;;;;;;5019723;28;20034;-62
2023/12/21 02:59:14;;;;;;;0.55;0.50;;;5.40;99.90;;;;;;5017001;28;20036;-62
2023/12/21 03:01:41;;;;;;;0.50;0.50;;;5.40;99.90;;;;;;5018681;28;20046;-62
2023/12/21 03:04:08;;;;;;;2.63;1.27;;;5.40;99.90;;;;;;5019472;28;20033;-61
2023/12/21 03:06:34;;;;;;;0.38;0.32;;;5.40;99.90;;;;;;5017187;28;20557;-62
2023/12/21 03:08:59;;;;;;;0.40;0.40;;;5.50;99.90;;;;;;5016912;28;20030;-62
2023/12/21 03:11:25;;;;;;;1.63;0.60;;;5.50;99.90;;;;;;5017652;28;20038;-62
2023/12/21 03:13:50;;;;;;;1.27;0.60;;;5.50;99.90;;;;;;5017523;28;20065;-62
2023/12/21 03:16:19;;;;;;;0.50;0.50;;;5.50;99.90;;;;;;5014481;28;20037;-62
2023/12/21 03:18:46;;;;;;;0.50;0.50;;;5.50;99.90;;;;;;5015740;28;20032;-61
2023/12/21 03:21:12;;;;;;;0.30;0.30;;;5.50;99.90;;;;;;5016479;28;20045;-63
2023/12/21 03:23:40;;;;;;;0.30;0.30;;;5.50;99.90;;;;;;5013074;28;20300;-62
2023/12/21 03:26:07;;;;;;;0.63;0.50;;;5.50;99.90;;;;;;5017136;28;20034;-62
2023/12/21 03:28:33;;;;;;;0.40;0.40;;;5.50;99.90;;;;;;5019826;28;20773;-62
2023/12/21 03:31:00;;;;;;;0.70;0.65;;;5.50;99.90;;;;;;5020042;28;20029;-62
2023/12/21 03:33:25;;;;;;;0.50;0.50;;;5.50;99.90;;;;;;5016289;28;20034;-63
2023/12/21 03:35:51;;;;;;;0.85;0.55;;;5.50;99.90;;;;;;5014204;28;20410;-61
2023/12/21 03:38:17;;;;;;;0.50;0.50;;;5.50;99.90;;;;;;5012685;28;20782;-61
2023/12/21 03:40:43;;;;;;;0.88;0.50;;;5.60;99.90;;;;;;5015510;28;20042;-62
2023/12/21 03:43:08;;;;;;;0.43;0.38;;;5.60;99.90;;;;;;5013302;28;20022;-62
2023/12/21 03:45:39;;;;;;;0.40;0.40;;;5.60;99.90;;;;;;5017491;28;20036;-62
2023/12/21 03:48:07;;;;;;;0.85;0.50;;;5.60;99.90;;;;;;5015433;28;20026;-61
2023/12/21 03:50:33;;;;;;;0.40;0.40;;;5.60;99.90;;;;;;5014181;28;20049;-62
2023/12/21 03:52:58;;;;;;;0.50;0.50;;;5.60;99.90;;;;;;5014052;28;20029;-61
2023/12/21 03:55:24;;;;;;;0.63;0.35;;;5.60;99.90;;;;;;5019459;28;20132;-62
2023/12/21 03:57:49;;;;;;;0.30;0.30;;;5.70;99.90;;;;;;5017266;28;20026;-61
2023/12/21 04:00:18;;;;;;;2.47;0.50;;;5.70;99.90;;;;;;5024188;28;20079;-62
2023/12/21 04:02:44;;;;;;;0.43;0.43;;;5.70;99.90;;;;;;5018429;28;20413;-62
2023/12/21 04:05:10;;;;;;;0.30;0.30;;;5.70;99.90;;;;;;5019224;28;20026;-61
2023/12/21 04:07:35;;;;;;;1.23;0.40;;;5.70;99.90;;;;;;5019418;28;20037;-63
2023/12/21 04:10:01;;;;;;;0.30;0.30;;;5.70;99.90;;;;;;5021022;28;20029;-63
2023/12/21 04:12:27;;;;;;;0.57;0.38;;;5.70;99.90;;;;;;5019121;28;20430;-61
2023/12/21 04:14:52;;;;;;;0.30;0.30;;;5.70;99.90;;;;;;5020247;28;20042;-61
2023/12/21 04:17:18;;;;;;;0.40;0.40;;;5.80;99.90;;;;;;5019345;28;20040;-62
2023/12/21 04:19:43;;;;;;;0.30;0.30;;;5.80;99.90;;;;;;5018056;28;20553;-62
2023/12/21 04:22:09;;;;;;;0.30;0.30;;;5.80;99.90;;;;;;5021768;28;20037;-62
2023/12/21 04:24:35;;;;;;;0.45;0.45;;;5.80;99.90;;;;;;5018789;28;20029;-61
2023/12/21 04:27:00;;;;;;;0.30;0.30;;;5.80;99.90;;;;;;5017511;28;20128;-61
2023/12/21 04:29:26;;;;;;;0.60;0.32;;;5.80;99.90;;;;;;5018561;28;20065;-62
2023/12/21 04:31:51;;;;;;;0.30;0.30;;;5.90;99.90;;;;;;5016711;28;20056;-61
2023/12/21 04:34:17;;;;;;;0.95;0.85;;;5.80;99.90;;;;;;5015458;28;20022;-62
2023/12/21 04:36:43;;;;;;;1.98;0.35;;;5.90;99.90;;;;;;5018103;28;20026;-61
2023/12/21 04:39:08;;;;;;;1.55;0.50;;;5.90;99.90;;;;;;5018483;28;20136;-62
2023/12/21 04:41:34;;;;;;;0.93;0.40;;;5.90;99.90;;;;;;5020823;28;20034;-62
2023/12/21 04:44:00;;;;;;;0.35;0.30;;;5.90;99.90;;;;;;5019683;28;20033;-62
2023/12/21 04:46:25;;;;;;;0.30;0.30;;;5.90;99.90;;;;;;5020100;28;20041;-62
2023/12/21 04:48:51;;;;;;;0.40;0.40;;;5.90;99.90;;;;;;5019772;28;20030;-61
2023/12/21 04:51:17;;;;;;;1.80;0.38;;;5.90;99.90;;;;;;5019517;28;20030;-62
2023/12/21 04:53:43;;;;;;;0.55;0.40;;;5.90;99.90;;;;;;5015605;28;20029;-62
2023/12/21 04:56:09;;;;;;;0.40;0.40;;;6.00;99.90;;;;;;5022223;28;20574;-61
2023/12/21 04:58:35;;;;;;;7.68;0.40;;;6.00;99.90;;;;;;5017177;28;20068;-62
2023/12/21 05:01:01;;;;;;;0.73;0.40;;;6.00;99.90;;;;;;5020779;28;20029;-62
2023/12/21 05:03:26;;;;;;;0.38;0.38;;;6.00;99.90;;;;;;5016548;28;20041;-63
2023/12/21 05:05:52;;;;;;;0.40;0.40;;;6.00;99.90;;;;;;5018803;28;20619;-61
2023/12/21 05:08:18;;;;;;;0.60;0.57;;;6.00;99.90;;;;;;5019831;28;20029;-62
2023/12/21 05:10:44;;;;;;;0.50;0.50;;;6.00;99.90;;;;;;5017001;28;20038;-62
2023/12/21 05:13:10;;;;;;;0.40;0.40;;;6.00;99.90;;;;;;5019074;28;20030;-62
2023/12/21 05:15:35;;;;;;;0.65;0.50;;;6.00;99.90;;;;;;5018103;28;20514;-63
2023/12/21 05:18:01;;;;;;;0.63;0.50;;;6.00;99.90;;;;;;5021904;28;20501;-62
2023/12/21 05:20:27;;;;;;;0.50;0.50;;;6.00;99.90;;;;;;5019854;28;20409;-62
2023/12/21 05:22:52;;;;;;;0.57;0.57;;;6.10;99.90;;;;;;5017687;28;20037;-61
2023/12/21 05:25:18;;;;;;;0.52;0.52;;;6.10;99.90;;;;;;5020316;28;20538;-62
2023/12/21 05:27:43;;;;;;;0.50;0.50;;;6.10;99.90;;;;;;5016800;28;20033;-63
2023/12/21 05:30:10;;;;;;;0.40;0.40;;;6.10;99.90;;;;;;5019307;28;20037;-63
2023/12/21 05:32:35;;;;;;;0.50;0.43;;;6.10;99.90;;;;;;5019673;28;20065;-64
2023/12/21 05:35:02;;;;;;;0.30;0.30;;;6.20;99.90;;;;;;5021276;28;20056;-62
2023/12/21 05:37:27;;;;;;;1.10;0.35;;;6.20;99.90;;;;;;5019539;28;20146;-63
2023/12/21 05:39:53;;;;;;;0.40;0.40;;;6.30;99.90;;;;;;5019955;28;20553;-63
2023/12/21 05:42:19;;;;;;;0.20;0.20;;;6.30;99.90;;;;;;5018762;28;20117;-62
2023/12/21 05:44:44;;;;;;;0.30;0.30;;;6.30;99.90;;;;;;5017495;28;20499;-64
2023/12/21 05:47:10;;;;;;;0.30;0.30;;;6.30;99.90;;;;;;5015071;28;20049;-63
2023/12/21 05:49:35;;;;;;;0.40;0.40;;;6.30;99.90;;;;;;5017154;28;20033;-63
2023/12/21 05:52:01;;;;;;;0.50;0.50;;;6.30;99.90;;;;;;5014852;28;20036;-63
2023/12/21 05:54:27;;;;;;;0.30;0.30;;;6.30;99.90;;;;;;5014906;28;20498;-63
2023/12/21 05:56:53;;;;;;;0.50;0.40;;;6.30;99.90;;;;;;5018325;28;20692;-61
2023/12/21 05:59:19;;;;;;;0.30;0.30;;;6.40;99.90;;;;;;5016524;28;20026;-64
2023/12/21 06:01:45;;;;;;;0.40;0.40;;;6.40;99.90;;;;;;5018663;28;20396;-62
2023/12/21 06:04:12;;;;;;;2.03;0.75;;;6.50;99.90;;;;;;5015675;28;20135;-62
2023/12/21 06:06:38;;;;;;;0.90;0.77;;;6.40;99.90;;;;;;5015936;28;20489;-63
2023/12/21 06:09:07;;;;;;;0.40;0.40;;;6.40;99.90;;;;;;5017625;28;20041;-62
2023/12/21 06:11:33;;;;;;;0.52;0.43;;;6.40;99.90;;;;;;5015812;28;20029;-63
2023/12/21 06:13:58;;;;;;;0.45;0.45;;;6.50;99.90;;;;;;5015044;28;20121;-63
2023/12/21 06:16:24;;;;;;;0.38;0.30;;;6.50;99.90;;;;;;5016367;28;20030;-62
2023/12/21 06:18:50;;;;;;;0.35;0.35;;;6.50;99.90;;;;;;5015472;28;20141;-63
2023/12/21 06:21:16;;;;;;;0.30;0.30;;;6.50;99.90;;;;;;5017862;28;20677;-63
2023/12/21 06:23:42;;;;;;;0.40;0.40;;;6.50;99.90;;;;;;5017383;28;20029;-62
2023/12/21 06:26:08;;;;;;;1.05;0.40;;;6.50;99.90;;;;;;5016634;28;20029;-62
2023/12/21 06:28:34;;;;;;;0.22;0.22;;;6.60;99.90;;;;;;5017429;28;20073;-62
2023/12/21 06:30:59;;;;;;;0.55;0.40;;;6.60;99.90;;;;;;5017090;28;20105;-63
2023/12/21 06:33:26;;;;;;;1.08;0.40;;;6.50;99.90;;;;;;5018102;28;20101;-63
2023/12/21 06:35:52;;;;;;;0.40;0.40;;;6.60;99.90;;;;;;5017125;28;20030;-62
2023/12/21 06:38:18;;;;;;;0.20;0.20;;;6.50;99.90;;;;;;5015634;28;20045;-63
2023/12/21 06:40:43;;;;;;;0.30;0.30;;;6.60;99.90;;;;;;5016810;28;20025;-64
2023/12/21 06:43:09;;;;;;;0.30;0.30;;;6.60;99.90;;;;;;5018117;28;20018;-63
2023/12/21 06:45:35;;;;;;;0.73;0.30;;;6.70;99.90;;;;;;5017906;28;20508;-63
2023/12/21 06:48:00;;;;;;;0.22;0.22;;;6.70;99.90;;;;;;5014356;28;20037;-63
2023/12/21 06:50:26;;;;;;;0.30;0.30;;;6.70;99.90;;;;;;5012557;28;20034;-63
2023/12/21 06:52:52;;;;;;;0.47;0.35;;;6.70;99.90;;;;;;5018666;28;20120;-62
2023/12/21 06:55:17;;;;;;;0.52;0.30;;;6.80;99.90;;;;;;5018514;28;20075;-63
2023/12/21 06:57:43;;;;;;;0.20;0.20;;;6.80;99.90;;;;;;5018342;28;20025;-63
2023/12/21 07:00:09;;;;;;;0.43;0.30;;;6.80;99.90;;;;;;5017049;28;20024;-63
2023/12/21 07:02:35;;;;;;;0.45;0.45;;;6.80;99.90;;;;;;5014738;28;20445;-63
2023/12/21 07:05:01;;;;;;;0.40;0.30;;;6.80;99.90;;;;;;5015721;28;20049;-63
2023/12/21 07:07:27;;;;;;;0.40;0.40;;;6.80;99.90;;;;;;5017867;28;20096;-63
2023/12/21 07:09:52;;;;;;;0.40;0.40;;;6.80;99.90;;;;;;5016918;28;20033;-63
2023/12/21 07:12:20;;;;;;;0.32;0.32;;;6.70;99.90;;;;;;5016777;28;20037;-63
2023/12/21 07:14:46;;;;;;;0.30;0.30;;;6.70;99.90;;;;;;5014934;28;20429;-64
2023/12/21 07:17:12;;;;;;;0.30;0.30;;;6.70;99.90;;;;;;5014032;28;20102;-63
2023/12/21 07:19:38;;;;;;;0.22;0.22;;;6.80;99.90;;;;;;5014337;28;20112;-63
2023/12/21 07:22:07;;;;;;;0.30;0.30;;;6.70;99.90;;;;;;5015907;28;20044;-63
2023/12/21 07:24:33;;;;;;;0.30;0.30;;;6.70;99.90;;;;;;5012048;28;20038;-62
2023/12/21 07:26:58;;;;;;;0.63;0.30;;;6.70;99.90;;;;;;5012998;28;20116;-63
2023/12/21 07:29:24;;;;;;;0.55;0.55;;;6.70;99.90;;;;;;5020960;28;20176;-63
2023/12/21 07:31:49;;;;;;;0.20;0.20;;;6.70;99.90;;;;;;5017440;28;20044;-62
2023/12/21 07:34:15;;;;;;;0.43;0.30;;;6.70;99.90;;;;;;5018714;28;20060;-62
2023/12/21 07:36:41;;;;;;;0.32;0.30;;;6.70;99.90;;;;;;5020891;28;20021;-63
2023/12/21 07:39:06;;;;;;;0.40;0.40;;;6.70;99.90;;;;;;5021840;28;20022;-63
2023/12/21 07:41:33;;;;;;;0.85;0.22;;;6.80;99.90;;;;;;5022268;28;20034;-63
2023/12/21 07:43:59;;;;;;;0.30;0.30;;;6.80;99.90;;;;;;5021619;28;20052;-64
2023/12/21 07:46:25;;;;;;;0.30;0.30;;;6.80;99.90;;;;;;5021532;28;20037;-61
2023/12/21 07:48:51;;;;;;;0.40;0.40;;;6.80;99.90;;;;;;5020888;28;20029;-62
2023/12/21 07:51:16;;;;;;;0.50;0.40;;;6.80;99.90;;;;;;5020086;28;20029;-64
2023/12/21 07:53:43;;;;;;;0.30;0.30;;;6.90;99.90;;;;;;5021586;28;20041;-63
2023/12/21 07:56:09;;;;;;;0.30;0.30;;;6.90;99.90;;;;;;5021531;28;20041;-64
2023/12/21 07:58:35;;;;;;;0.30;0.30;;;6.90;99.90;;;;;;5020241;28;20033;-63
2023/12/21 08:01:01;;;;;;;0.32;0.32;;;6.80;99.90;;;;;;5021601;28;20022;-63
2023/12/21 08:03:26;;;;;;;0.50;0.50;;;6.80;99.90;;;;;;5022168;28;20682;-63
2023/12/21 08:05:52;;;;;;;0.35;0.35;;;6.70;99.90;;;;;;5021491;28;20030;-63
2023/12/21 08:08:19;;;;;;;0.40;0.30;;;6.70;99.90;;;;;;5022189;28;20772;-62
2023/12/21 08:10:44;;;;;;;0.30;0.30;;;6.70;99.90;;;;;;5022906;28;20057;-63
2023/12/21 08:13:11;;;;;;;0.57;0.40;;;6.70;99.90;;;;;;5022820;28;20061;-63
2023/12/21 08:15:37;;;;;;;0.40;0.40;;;6.70;99.90;;;;;;5021028;28;20030;-64
2023/12/21 08:18:02;;;;;;;1.17;0.40;;;6.70;99.90;;;;;;5022412;28;20029;-63
2023/12/21 08:20:29;;;;;;;0.30;0.30;;;6.70;99.90;;;;;;5019669;28;20042;-63
2023/12/21 08:22:55;;;;;;;0.40;0.40;;;6.70;99.90;;;;;;5018948;28;20033;-64
2023/12/21 08:25:23;;;;;;;0.38;0.38;;;6.70;99.90;;;;;;5018963;28;20033;-63
2023/12/21 08:27:48;;;;;;;0.30;0.30;;;6.70;99.90;;;;;;5018627;28;20025;-62
2023/12/21 08:30:14;;;;;;;0.20;0.20;;;6.70;99.90;;;;;;5019330;28;20048;-63
2023/12/21 08:32:40;;;;;;;0.40;0.40;;;6.70;99.90;;;;;;5023072;28;20137;-63
2023/12/21 08:35:06;;;;;;;0.57;0.30;;;6.70;99.90;;;;;;5015655;28;20034;-63
2023/12/21 08:37:32;;;;;;;0.32;0.30;;;6.70;99.90;;;;;;5018174;28;20033;-63
2023/12/21 08:39:58;;;;;;;0.35;0.32;;;6.70;99.90;;;;;;5016356;28;20607;-63
2023/12/21 08:42:26;;;;;;;1.55;0.40;;;6.70;99.90;;;;;;5018196;28;20030;-62
2023/12/21 08:44:52;;;;;;;0.40;0.30;;;6.70;99.90;;;;;;5016180;28;20045;-62
2023/12/21 08:47:18;;;;;;;0.30;0.30;;;6.70;99.90;;;;;;5015645;28;20044;-63
2023/12/21 08:49:43;;;;;;;0.30;0.30;;;6.70;99.90;;;;;;5019456;28;20113;-63
2023/12/21 08:52:09;;;;;;;0.38;0.28;;;6.80;99.90;;;;;;5020848;28;20496;-63
2023/12/21 08:54:35;;;;;;;0.40;0.40;;;6.80;99.90;;;;;;5020398;28;20025;-64
2023/12/21 08:57:01;;;;;;;0.40;0.40;;;6.80;99.90;;;;;;5021275;28;20043;-63
2023/12/21 08:59:27;;;;;;;0.20;0.20;;;6.70;99.90;;;;;;5020565;28;20164;-63
2023/12/21 09:01:56;;;;;;;0.90;0.30;;;6.70;99.90;;;;;;5019118;28;20395;-63
2023/12/21 09:04:21;;;;;;;0.30;0.30;;;6.80;99.90;;;;;;5019597;28;20017;-63
2023/12/21 09:06:47;;;;;;;0.28;0.28;;;6.70;99.90;;;;;;5020255;28;20075;-64
2023/12/21 09:09:13;;;;;;;0.20;0.20;;;6.80;99.90;;;;;;5019410;28;20410;-62
2023/12/21 09:11:41;;;;;;;0.30;0.30;;;6.80;99.90;;;;;;5020149;28;20022;-64
2023/12/21 09:14:07;;;;;;;0.25;0.25;;;6.90;99.90;;;;;;5020239;28;20040;-63
2023/12/21 09:16:33;;;;;;;0.50;0.40;;;6.90;99.90;;;;;;5018219;28;20026;-63
2023/12/21 09:18:59;;;;;;;0.60;0.40;;;7.00;99.90;;;;;;5021005;28;20620;-64
2023/12/21 09:21:25;;;;;;;0.82;0.40;;;6.90;99.90;;;;;;5019666;28;20167;-64
2023/12/21 09:23:50;;;;;;;0.40;0.40;;;7.00;99.90;;;;;;5018908;28;20498;-63
2023/12/21 09:26:16;;;;;;;0.88;0.30;;;7.00;99.90;;;;;;5021360;28;20034;-64
2023/12/21 09:28:42;;;;;;;0.30;0.30;;;7.00;99.90;;;;;;5018215;28;20465;-64
2023/12/21 09:31:08;;;;;;;1.15;0.50;;;7.00;99.90;;;;;;5018636;28;20518;-64
2023/12/21 09:33:34;;;;;;;0.40;0.40;;;7.00;99.90;;;;;;5017037;28;20119;-63
2023/12/21 09:36:03;;;;;;;0.52;0.43;;;7.00;99.90;;;;;;5012999;28;20033;-64
2023/12/21 09:38:31;;;;;;;0.60;0.60;;;7.10;99.90;;;;;;5017862;28;20117;-63
2023/12/21 09:40:57;;;;;;;0.93;0.50;;;7.10;99.90;;;;;;5015644;28;20033;-63
2023/12/21 09:43:23;;;;;;;0.60;0.60;;;7.00;99.90;;;;;;5017315;28;20022;-63
2023/12/21 09:45:52;;;;;;;0.73;0.40;;;7.00;99.90;;;;;;5017935;28;20358;-64
2023/12/21 09:48:20;;;;;;;0.40;0.40;;;7.00;99.90;;;;;;5019793;28;20060;-64
2023/12/21 09:50:49;;;;;;;0.38;0.38;;;7.00;99.90;;;;;;5018126;28;20030;-64
2023/12/21 09:53:16;;;;;;;0.30;0.30;;;7.00;99.90;;;;;;5017427;28;20084;-64
2023/12/21 09:55:43;;;;;;;1.65;0.38;;;7.00;99.90;;;;;;5014360;28;20037;-64
2023/12/21 09:58:12;;;;;;;0.30;0.30;;;7.00;99.90;;;;;;5022873;28;20025;-64
2023/12/21 10:00:41;;;;;;;0.38;0.38;;;7.00;99.90;;;;;;5015788;28;20022;-65
2023/12/21 10:03:07;;;;;;;0.75;0.40;;;7.00;99.90;;;;;;5016013;28;20567;-65
2023/12/21 10:05:34;;;;;;;0.65;0.20;;;7.10;99.90;;;;;;5017089;28;20037;-64
2023/12/21 10:07:59;;;;;;;0.30;0.30;;;7.10;99.90;;;;;;5017581;28;20493;-64
2023/12/21 10:10:26;;;;;;;0.20;0.20;;;7.10;99.90;;;;;;5016554;28;20038;-65
2023/12/21 10:12:52;;;;;;;0.63;0.40;;;7.10;99.90;;;;;;5019572;28;20026;-64
2023/12/21 10:15:19;;;;;;;0.30;0.30;;;7.10;99.90;;;;;;5014277;28;20095;-64
2023/12/21 10:17:45;;;;;;;0.73;0.35;;;7.10;99.90;;;;;;5012795;28;20099;-65
2023/12/21 10:20:11;;;;;;;0.38;0.38;;;7.10;99.90;;;;;;5016354;28;20120;-63
2023/12/21 10:22:42;;;;;;;0.30;0.30;;;7.10;99.90;;;;;;5014693;28;20164;-63
2023/12/21 10:25:09;;;;;;;0.22;0.22;;;7.10;99.90;;;;;;5011410;28;20367;-65
2023/12/21 10:27:35;;;;;;;0.20;0.20;;;7.10;99.90;;;;;;5017506;28;20026;-64
2023/12/21 10:30:02;;;;;;;0.32;0.32;;;7.10;99.90;;;;;;5016413;28;20764;-66
2023/12/21 10:32:28;;;;;;;0.28;0.28;;;7.10;99.90;;;;;;5017417;28;20529;-64
2023/12/21 10:34:58;;;;;;;0.30;0.30;;;7.10;99.90;;;;;;5015922;28;20045;-65
2023/12/21 10:37:24;;;;;;;0.30;0.30;;;7.10;99.90;;;;;;5016751;28;20037;-64
2023/12/21 10:39:50;;;;;;;0.20;0.20;;;7.10;99.90;;;;;;5017168;28;20098;-64
2023/12/21 10:42:15;;;;;;;0.30;0.30;;;7.20;99.90;;;;;;5017182;28;20037;-63
2023/12/21 10:44:45;;;;;;;1.85;0.70;;;7.20;99.90;;;;;;5017373;28;20022;-61
2023/12/21 10:47:12;;;;;;;0.20;0.20;;;7.20;99.90;;;;;;5015954;28;20108;-64
2023/12/21 10:49:40;;;;;;;0.20;0.20;;;7.20;99.90;;;;;;5015869;28;20083;-64
2023/12/21 10:52:07;;;;;;;0.65;0.40;;;7.10;99.90;;;;;;5015554;28;20030;-61
2023/12/21 10:54:33;;;;;;;0.43;0.30;;;7.10;99.90;;;;;;5015800;28;20406;-64
2023/12/21 10:56:59;;;;;;;0.20;0.20;;;7.10;99.90;;;;;;5014250;28;20052;-62
2023/12/21 10:59:26;;;;;;;0.20;0.20;;;7.10;99.90;;;;;;5018213;28;20631;-63
2023/12/21 11:01:53;;;;;;;0.30;0.30;;;7.10;99.90;;;;;;5017333;28;20080;-63
2023/12/21 11:04:22;;;;;;;0.43;0.30;;;7.10;99.90;;;;;;5024352;28;20029;-64
2023/12/21 11:06:49;;;;;;;0.30;0.30;;;7.10;99.90;;;;;;5018516;28;20057;-63
2023/12/21 11:09:19;;;;;;;0.20;0.20;;;7.10;99.90;;;;;;5019943;28;20052;-65
2023/12/21 11:11:45;;;;;;;0.20;0.20;;;7.10;99.90;;;;;;5022727;28;20497;-62
2023/12/21 11:14:12;;;;;;;0.20;0.20;;;7.10;99.90;;;;;;5023585;28;20029;-63
2023/12/21 11:16:43;;;;;;;0.20;0.20;;;7.10;99.90;;;;;;5020117;28;20120;-64
2023/12/21 11:19:10;;;;;;;;;;;7.10;99.90;;;;;;5023961;28;20026;-63
2023/12/21 11:21:36;;;;;;;0.20;0.20;;;7.20;99.90;;;;;;5022892;28;19963;-64
2023/12/21 11:24:02;;;;;;;0.20;0.20;;;7.20;99.90;;;;;;5021034;28;20108;-64
2023/12/21 11:26:28;;;;;;;0.20;0.20;;;7.20;99.90;;;;;;5022549;28;21133;-64
2023/12/21 11:29:05;;;;;;;0.20;0.20;;;7.10;99.90;;;;;;5023130;28;20026;-63
2023/12/21 11:31:40;;;;;;;0.20;0.20;;;7.20;99.90;;;;;;5023889;28;20765;-64
2023/12/21 11:34:21;;;;;;;0.30;0.30;;;7.20;99.90;;;;;;5024777;28;20049;-63
2023/12/21 11:36:50;;;;;;;0.20;0.20;;;7.20;99.90;;;;;;5023548;28;20029;-64
2023/12/21 11:39:19;;;;;;;0.20;0.20;;;7.20;99.90;;;;;;5023894;28;20036;-63
2023/12/21 11:41:49;;;;;;;0.30;0.30;;;7.20;99.90;;;;;;5023818;28;20038;-64
2023/12/21 11:44:15;;;;;;;0.70;0.20;;;7.20;99.90;;;;;;5024490;28;20022;-64
2023/12/21 11:46:41;;;;;;;0.30;0.30;;;7.20;99.90;;;;;;5021445;28;20033;-64
2023/12/21 11:49:11;;;;;;;0.30;0.30;;;7.20;99.90;;;;;;5023602;28;20404;-64
2023/12/21 11:51:47;;;;;;;0.30;0.30;;;7.20;99.90;;;;;;5023931;28;20036;-64
2023/12/21 11:54:18;;;;;;;0.65;0.30;;;7.20;99.90;;;;;;5024128;28;20037;-63
2023/12/21 11:56:44;;;;;;;0.32;0.32;;;7.30;99.90;;;;;;5024686;28;20041;-64
2023/12/21 11:59:10;;;;;;;0.40;0.30;;;7.30;99.90;;;;;;5023378;28;20552;-62
2023/12/21 12:01:37;;;;;;;0.30;0.30;;;7.30;99.90;;;;;;5022023;28;20110;-63
2023/12/21 12:04:05;;;;;;;0.30;0.30;;;7.30;99.90;;;;;;5024311;28;20041;-64
2023/12/21 12:06:32;;;;;;;0.30;0.30;;;7.30;99.90;;;;;;5022363;28;20044;-63
2023/12/21 12:08:58;;;;;;;0.30;0.30;;;7.30;99.90;;;;;;5020875;28;20041;-63
2023/12/21 12:11:24;;;;;;;0.30;0.30;;;7.30;99.90;;;;;;5022804;28;20521;-63
2023/12/21 12:13:50;;;;;;;0.40;0.40;;;7.30;99.90;;;;;;5020588;28;20547;-63
2023/12/21 12:16:17;;;;;;;0.40;0.40;;;7.40;99.90;;;;;;5018876;28;20094;-64
2023/12/21 12:18:43;;;;;;;0.20;0.20;;;7.40;99.90;;;;;;5018476;28;20040;-65
2023/12/21 12:21:10;;;;;;;0.40;0.30;;;7.40;99.90;;;;;;5022115;28;20026;-63
2023/12/21 12:23:35;;;;;;;0.40;0.40;;;7.40;99.90;;;;;;5021785;28;20095;-65
2023/12/21 12:26:02;;;;;;;0.38;0.35;;;7.40;99.90;;;;;;5022468;28;20030;-64
2023/12/21 12:28:28;;;;;;;0.30;0.30;;;7.40;99.90;;;;;;5021346;28;20487;-63
2023/12/21 12:30:54;;;;;;;0.22;0.22;;;7.40;99.90;;;;;;5020150;28;20041;-65
2023/12/21 12:33:20;;;;;;;0.20;0.20;;;7.50;99.90;;;;;;5023491;28;20022;-64
2023/12/21 12:35:48;;;;;;;1.95;0.30;;;7.50;99.90;;;;;;5023335;28;20063;-64
2023/12/21 12:38:16;;;;;;;0.65;0.65;;;7.50;99.90;;;;;;5022104;28;20072;-67
2023/12/21 12:40:41;;;;;;;0.40;0.40;;;7.50;99.90;;;;;;5022261;28;20397;-64
2023/12/21 12:43:08;;;;;;;0.30;0.30;;;7.50;99.90;;;;;;5020362;28;20018;-64
2023/12/21 12:45:34;;;;;;;0.30;0.30;;;7.50;99.90;;;;;;5023967;28;20398;-64
2023/12/21 12:48:00;;;;;;;0.30;0.30;;;7.60;99.90;;;;;;5021467;28;20033;-63
2023/12/21 12:50:26;;;;;;;0.20;0.20;;;7.60;99.90;;;;;;5019726;28;20036;-65
2023/12/21 12:52:52;;;;;;;0.40;0.40;;;7.60;99.90;;;;;;5018900;28;20022;-65